Current | Forecast
Updated: 3:00 PM CET on November 22, 2017
Observed at Salamanca, Spain
Temperature 17°C
Humidity 30%
Dew Point -1°C
Wind WSW at 35 km/h
Pressure 1013 hPa (Falling)
Conditions Clear
Visibility -
UV N/A
Clouds
Yesterday's Maximum 19°C
Yesterday's Minimum -4°C approx.
Yesterday's Heating Degree Days 20 approx.
Sunrise8:17 AM CET
Sunset6:01 PM CET
Moon Rise11:26 AM CET
Moon Set9:22 PM CET
Moon PhaseMoon Phase
Waxing Crescent
Raw METARMETAR LESA 221400Z 24019KT CAVOK 17/M01 Q1013


Monday
. High: 66° F.
Tuesday
. High: 73° F.
Wednesday
. High: 60° F.
Thursday
. High: 69° F.
Friday
. High: 75° F.
Saturday
. High: 75° F.
Sunday
. High: 77° F.
Monday
. High: 86° F.

Units: English | Metric

Find the Weather for any City, State or Zipcode, or Country:

U.S. State List | Severe Weather | Tropical Storms | Ski Conditions
United States | Canada | Central America | South America | Asia | Europe | Australia | Africa | Islands

Weather Underground

© Copyright 2017
The Weather Company, LLC